Terminal Aerodrome Forecast
Issued by NWS Pueblo, CO

Home | Current Version | Previous Version | Text Only | Print | Product List | Glossary On
Versions: 1 2 3 4 5 6 7 8 9 10 11 12 13 14 15 16 17 18 19 20 21 22 23 24 25 26 27 28 29 30 31 32 33 34 35 36 37 38 39 40 41 42
000
FTUS45 KPUB 290520
TAFPUB
TAF
KPUB 290520Z 2906/3006 VRB05KT P6SM SCT080 BKN200
     FM291000 VRB05KT P6SM SCT120 BKN250
     FM291600 12008KT P6SM SCT200
     FM292100 14011KT P6SM VCTS SCT040CB BKN080=

USA.gov is the U.S. government's official web portal to all federal, state and local government web resources and services.